sensor_id;sensor_type;location;lat;lon;timestamp;P1;durP1;ratioP1;P2;durP2;ratioP2
25932;SDS011;13731;51.166;4.474;2023-12-07T00:01:56;108.43;;;67.80;;
25932;SDS011;13731;51.166;4.474;2023-12-07T00:04:22;106.60;;;68.32;;
25932;SDS011;13731;51.166;4.474;2023-12-07T00:06:48;160.10;;;73.47;;
25932;SDS011;13731;51.166;4.474;2023-12-07T00:09:14;124.90;;;74.38;;
25932;SDS011;13731;51.166;4.474;2023-12-07T00:11:40;117.78;;;77.85;;
25932;SDS011;13731;51.166;4.474;2023-12-07T00:14:07;103.70;;;69.03;;
25932;SDS011;13731;51.166;4.474;2023-12-07T00:16:33;110.93;;;67.25;;
25932;SDS011;13731;51.166;4.474;2023-12-07T00:18:58;125.22;;;77.03;;
25932;SDS011;13731;51.166;4.474;2023-12-07T00:21:24;95.55;;;84.15;;
25932;SDS011;13731;51.166;4.474;2023-12-07T00:23:50;159.07;;;91.65;;
25932;SDS011;13731;51.166;4.474;2023-12-07T00:26:16;166.27;;;91.50;;
25932;SDS011;13731;51.166;4.474;2023-12-07T00:28:45;232.27;;;94.38;;
25932;SDS011;13731;51.166;4.474;2023-12-07T00:31:11;212.27;;;110.97;;
25932;SDS011;13731;51.166;4.474;2023-12-07T00:33:38;185.35;;;78.38;;
25932;SDS011;13731;51.166;4.474;2023-12-07T00:36:04;247.63;;;102.22;;
25932;SDS011;13731;51.166;4.474;2023-12-07T00:38:30;253.02;;;106.53;;
25932;SDS011;13731;51.166;4.474;2023-12-07T00:40:57;167.20;;;86.60;;
25932;SDS011;13731;51.166;4.474;2023-12-07T00:43:23;243.98;;;84.43;;
25932;SDS011;13731;51.166;4.474;2023-12-07T00:45:49;257.45;;;92.93;;
25932;SDS011;13731;51.166;4.474;2023-12-07T00:48:15;147.70;;;88.40;;
25932;SDS011;13731;51.166;4.474;2023-12-07T00:50:41;163.95;;;93.57;;
25932;SDS011;13731;51.166;4.474;2023-12-07T00:53:07;130.45;;;99.43;;
25932;SDS011;13731;51.166;4.474;2023-12-07T00:55:34;170.70;;;94.63;;
25932;SDS011;13731;51.166;4.474;2023-12-07T00:58:00;138.57;;;90.45;;
25932;SDS011;13731;51.166;4.474;2023-12-07T01:00:27;168.57;;;91.35;;
25932;SDS011;13731;51.166;4.474;2023-12-07T01:02:53;119.43;;;89.88;;
25932;SDS011;13731;51.166;4.474;2023-12-07T01:05:19;128.57;;;91.47;;
25932;SDS011;13731;51.166;4.474;2023-12-07T01:07:44;168.07;;;98.78;;
25932;SDS011;13731;51.166;4.474;2023-12-07T01:10:10;145.70;;;98.78;;
25932;SDS011;13731;51.166;4.474;2023-12-07T01:12:36;204.15;;;104.43;;
25932;SDS011;13731;51.166;4.474;2023-12-07T01:15:03;130.90;;;83.78;;
25932;SDS011;13731;51.166;4.474;2023-12-07T01:17:29;122.32;;;87.80;;
25932;SDS011;13731;51.166;4.474;2023-12-07T01:19:55;127.32;;;87.15;;
25932;SDS011;13731;51.166;4.474;2023-12-07T01:22:23;344.65;;;95.13;;
25932;SDS011;13731;51.166;4.474;2023-12-07T01:24:48;159.07;;;85.80;;
25932;SDS011;13731;51.166;4.474;2023-12-07T01:27:14;241.80;;;91.43;;
25932;SDS011;13731;51.166;4.474;2023-12-07T01:29:41;149.45;;;83.47;;
25932;SDS011;13731;51.166;4.474;2023-12-07T01:32:07;182.55;;;91.65;;
25932;SDS011;13731;51.166;4.474;2023-12-07T01:34:33;142.88;;;88.28;;
25932;SDS011;13731;51.166;4.474;2023-12-07T01:37:02;111.80;;;83.25;;
25932;SDS011;13731;51.166;4.474;2023-12-07T01:39:28;125.53;;;86.73;;
25932;SDS011;13731;51.166;4.474;2023-12-07T01:41:54;133.25;;;85.45;;
25932;SDS011;13731;51.166;4.474;2023-12-07T01:44:20;149.23;;;85.85;;
25932;SDS011;13731;51.166;4.474;2023-12-07T01:46:46;149.05;;;83.88;;
25932;SDS011;13731;51.166;4.474;2023-12-07T01:49:14;120.53;;;81.25;;
25932;SDS011;13731;51.166;4.474;2023-12-07T01:51:40;115.35;;;82.18;;
25932;SDS011;13731;51.166;4.474;2023-12-07T01:54:06;190.50;;;97.35;;
25932;SDS011;13731;51.166;4.474;2023-12-07T01:56:32;110.85;;;81.22;;
25932;SDS011;13731;51.166;4.474;2023-12-07T01:58:58;113.90;;;86.03;;
25932;SDS011;13731;51.166;4.474;2023-12-07T02:01:23;102.25;;;84.43;;
25932;SDS011;13731;51.166;4.474;2023-12-07T02:03:49;120.18;;;89.85;;
25932;SDS011;13731;51.166;4.474;2023-12-07T02:06:15;108.32;;;84.45;;
25932;SDS011;13731;51.166;4.474;2023-12-07T02:08:43;102.85;;;80.57;;
25932;SDS011;13731;51.166;4.474;2023-12-07T02:11:10;105.82;;;87.82;;
25932;SDS011;13731;51.166;4.474;2023-12-07T02:13:39;106.30;;;86.78;;
25932;SDS011;13731;51.166;4.474;2023-12-07T02:16:27;103.30;;;82.47;;
25932;SDS011;13731;51.166;4.474;2023-12-07T02:19:03;109.07;;;88.65;;
25932;SDS011;13731;51.166;4.474;2023-12-07T02:21:38;104.70;;;84.00;;
25932;SDS011;13731;51.166;4.474;2023-12-07T02:24:10;106.53;;;89.68;;
25932;SDS011;13731;51.166;4.474;2023-12-07T02:26:40;101.88;;;86.03;;
25932;SDS011;13731;51.166;4.474;2023-12-07T02:29:06;113.53;;;88.20;;
25932;SDS011;13731;51.166;4.474;2023-12-07T02:31:32;103.78;;;86.65;;
25932;SDS011;13731;51.166;4.474;2023-12-07T02:33:58;103.65;;;90.28;;
25932;SDS011;13731;51.166;4.474;2023-12-07T02:36:27;99.18;;;83.90;;
25932;SDS011;13731;51.166;4.474;2023-12-07T02:38:58;113.78;;;85.70;;
25932;SDS011;13731;51.166;4.474;2023-12-07T02:41:28;107.78;;;83.60;;
25932;SDS011;13731;51.166;4.474;2023-12-07T02:43:57;112.15;;;86.50;;
25932;SDS011;13731;51.166;4.474;2023-12-07T02:46:24;112.45;;;85.57;;
25932;SDS011;13731;51.166;4.474;2023-12-07T02:48:51;107.28;;;84.00;;
25932;SDS011;13731;51.166;4.474;2023-12-07T02:51:17;106.43;;;84.28;;
25932;SDS011;13731;51.166;4.474;2023-12-07T02:53:43;101.22;;;85.53;;
25932;SDS011;13731;51.166;4.474;2023-12-07T02:56:10;100.45;;;83.20;;
25932;SDS011;13731;51.166;4.474;2023-12-07T02:58:36;105.93;;;84.50;;
25932;SDS011;13731;51.166;4.474;2023-12-07T03:01:02;105.43;;;81.22;;
25932;SDS011;13731;51.166;4.474;2023-12-07T03:03:28;107.65;;;85.47;;
25932;SDS011;13731;51.166;4.474;2023-12-07T03:05:54;104.70;;;83.18;;
25932;SDS011;13731;51.166;4.474;2023-12-07T03:08:20;106.75;;;86.10;;
25932;SDS011;13731;51.166;4.474;2023-12-07T03:10:46;108.07;;;85.97;;
25932;SDS011;13731;51.166;4.474;2023-12-07T03:13:12;103.20;;;87.65;;
25932;SDS011;13731;51.166;4.474;2023-12-07T03:15:38;102.47;;;91.03;;
25932;SDS011;13731;51.166;4.474;2023-12-07T03:18:07;96.90;;;86.22;;
25932;SDS011;13731;51.166;4.474;2023-12-07T03:20:33;101.20;;;86.13;;
25932;SDS011;13731;51.166;4.474;2023-12-07T03:22:59;96.15;;;81.80;;
25932;SDS011;13731;51.166;4.474;2023-12-07T03:25:25;99.25;;;87.63;;
25932;SDS011;13731;51.166;4.474;2023-12-07T03:27:51;90.13;;;77.72;;
25932;SDS011;13731;51.166;4.474;2023-12-07T03:30:17;96.15;;;82.95;;
25932;SDS011;13731;51.166;4.474;2023-12-07T03:32:43;101.72;;;90.95;;
25932;SDS011;13731;51.166;4.474;2023-12-07T03:35:09;100.70;;;88.10;;
25932;SDS011;13731;51.166;4.474;2023-12-07T03:37:35;100.65;;;84.28;;
25932;SDS011;13731;51.166;4.474;2023-12-07T03:40:01;99.40;;;89.30;;
25932;SDS011;13731;51.166;4.474;2023-12-07T03:42:29;103.10;;;92.82;;
25932;SDS011;13731;51.166;4.474;2023-12-07T03:44:55;99.30;;;89.35;;
25932;SDS011;13731;51.166;4.474;2023-12-07T03:47:21;104.32;;;94.30;;
25932;SDS011;13731;51.166;4.474;2023-12-07T03:49:47;109.20;;;99.47;;
25932;SDS011;13731;51.166;4.474;2023-12-07T03:52:13;102.25;;;92.57;;
25932;SDS011;13731;51.166;4.474;2023-12-07T03:54:39;103.18;;;93.18;;
25932;SDS011;13731;51.166;4.474;2023-12-07T03:57:05;102.03;;;92.13;;
25932;SDS011;13731;51.166;4.474;2023-12-07T03:59:31;99.78;;;89.95;;
25932;SDS011;13731;51.166;4.474;2023-12-07T04:01:57;101.28;;;91.30;;
25932;SDS011;13731;51.166;4.474;2023-12-07T04:04:22;100.63;;;90.97;;
25932;SDS011;13731;51.166;4.474;2023-12-07T04:06:48;99.63;;;89.95;;
25932;SDS011;13731;51.166;4.474;2023-12-07T04:09:14;101.22;;;91.75;;
25932;SDS011;13731;51.166;4.474;2023-12-07T04:11:40;97.13;;;87.63;;
25932;SDS011;13731;51.166;4.474;2023-12-07T04:14:06;98.03;;;88.53;;
25932;SDS011;13731;51.166;4.474;2023-12-07T04:16:32;100.78;;;90.85;;
25932;SDS011;13731;51.166;4.474;2023-12-07T04:18:58;103.63;;;94.13;;
25932;SDS011;13731;51.166;4.474;2023-12-07T04:21:23;100.40;;;90.90;;
25932;SDS011;13731;51.166;4.474;2023-12-07T04:23:49;104.45;;;94.45;;
25932;SDS011;13731;51.166;4.474;2023-12-07T04:26:15;97.53;;;88.15;;
25932;SDS011;13731;51.166;4.474;2023-12-07T04:28:41;102.75;;;93.15;;
25932;SDS011;13731;51.166;4.474;2023-12-07T04:31:07;99.80;;;90.93;;
25932;SDS011;13731;51.166;4.474;2023-12-07T04:33:33;102.47;;;92.85;;
25932;SDS011;13731;51.166;4.474;2023-12-07T04:35:59;101.00;;;91.57;;
25932;SDS011;13731;51.166;4.474;2023-12-07T04:38:24;94.60;;;86.00;;
25932;SDS011;13731;51.166;4.474;2023-12-07T04:40:50;98.45;;;89.57;;
25932;SDS011;13731;51.166;4.474;2023-12-07T04:43:16;96.97;;;88.38;;
25932;SDS011;13731;51.166;4.474;2023-12-07T04:45:42;104.43;;;95.28;;
25932;SDS011;13731;51.166;4.474;2023-12-07T04:48:08;101.85;;;93.25;;
25932;SDS011;13731;51.166;4.474;2023-12-07T04:50:33;96.22;;;87.55;;
25932;SDS011;13731;51.166;4.474;2023-12-07T04:52:59;98.75;;;90.00;;
25932;SDS011;13731;51.166;4.474;2023-12-07T04:55:25;97.50;;;89.20;;
25932;SDS011;13731;51.166;4.474;2023-12-07T04:57:53;96.13;;;87.22;;
25932;SDS011;13731;51.166;4.474;2023-12-07T05:00:19;101.22;;;92.18;;
25932;SDS011;13731;51.166;4.474;2023-12-07T05:02:46;97.15;;;88.68;;
25932;SDS011;13731;51.166;4.474;2023-12-07T05:05:13;97.65;;;89.43;;
25932;SDS011;13731;51.166;4.474;2023-12-07T05:07:39;102.97;;;94.05;;
25932;SDS011;13731;51.166;4.474;2023-12-07T05:10:05;100.13;;;91.32;;
25932;SDS011;13731;51.166;4.474;2023-12-07T05:12:31;98.78;;;90.25;;
25932;SDS011;13731;51.166;4.474;2023-12-07T05:14:58;97.53;;;88.88;;
25932;SDS011;13731;51.166;4.474;2023-12-07T05:17:23;94.75;;;85.40;;
25932;SDS011;13731;51.166;4.474;2023-12-07T05:19:49;97.80;;;88.43;;
25932;SDS011;13731;51.166;4.474;2023-12-07T05:22:15;97.85;;;88.28;;
25932;SDS011;13731;51.166;4.474;2023-12-07T05:24:41;101.70;;;92.43;;
25932;SDS011;13731;51.166;4.474;2023-12-07T05:27:07;98.00;;;89.00;;
25932;SDS011;13731;51.166;4.474;2023-12-07T05:29:33;102.93;;;93.85;;
25932;SDS011;13731;51.166;4.474;2023-12-07T05:31:59;98.22;;;89.63;;
25932;SDS011;13731;51.166;4.474;2023-12-07T05:34:29;96.03;;;87.90;;
25932;SDS011;13731;51.166;4.474;2023-12-07T05:36:55;95.45;;;86.75;;
25932;SDS011;13731;51.166;4.474;2023-12-07T05:39:20;102.35;;;93.18;;
25932;SDS011;13731;51.166;4.474;2023-12-07T05:41:46;95.32;;;87.53;;
25932;SDS011;13731;51.166;4.474;2023-12-07T05:44:12;107.60;;;99.20;;
25932;SDS011;13731;51.166;4.474;2023-12-07T05:46:38;104.03;;;95.95;;
25932;SDS011;13731;51.166;4.474;2023-12-07T05:49:09;111.80;;;102.97;;
25932;SDS011;13731;51.166;4.474;2023-12-07T05:51:35;109.07;;;99.97;;
25932;SDS011;13731;51.166;4.474;2023-12-07T05:54:01;103.72;;;94.53;;
25932;SDS011;13731;51.166;4.474;2023-12-07T05:56:28;106.63;;;97.97;;
25932;SDS011;13731;51.166;4.474;2023-12-07T05:58:54;104.10;;;95.85;;
25932;SDS011;13731;51.166;4.474;2023-12-07T06:01:20;106.45;;;97.28;;
25932;SDS011;13731;51.166;4.474;2023-12-07T06:03:46;106.32;;;97.95;;
25932;SDS011;13731;51.166;4.474;2023-12-07T06:06:12;101.82;;;92.97;;
25932;SDS011;13731;51.166;4.474;2023-12-07T06:08:38;107.45;;;99.43;;
25932;SDS011;13731;51.166;4.474;2023-12-07T06:11:05;103.90;;;95.25;;
25932;SDS011;13731;51.166;4.474;2023-12-07T06:13:31;96.25;;;88.40;;
25932;SDS011;13731;51.166;4.474;2023-12-07T06:15:57;95.00;;;87.68;;
25932;SDS011;13731;51.166;4.474;2023-12-07T06:18:23;96.88;;;89.68;;
25932;SDS011;13731;51.166;4.474;2023-12-07T06:20:49;91.65;;;84.60;;
25932;SDS011;13731;51.166;4.474;2023-12-07T06:23:15;88.78;;;82.18;;
25932;SDS011;13731;51.166;4.474;2023-12-07T06:25:41;83.13;;;76.43;;
25932;SDS011;13731;51.166;4.474;2023-12-07T06:28:07;80.75;;;74.13;;
25932;SDS011;13731;51.166;4.474;2023-12-07T06:30:33;83.93;;;77.15;;
25932;SDS011;13731;51.166;4.474;2023-12-07T06:33:00;81.00;;;74.43;;
25932;SDS011;13731;51.166;4.474;2023-12-07T06:35:25;81.63;;;75.10;;
25932;SDS011;13731;51.166;4.474;2023-12-07T06:37:51;79.82;;;72.88;;
25932;SDS011;13731;51.166;4.474;2023-12-07T06:40:20;75.72;;;68.18;;
25932;SDS011;13731;51.166;4.474;2023-12-07T06:42:46;82.88;;;75.60;;
25932;SDS011;13731;51.166;4.474;2023-12-07T06:45:13;85.85;;;78.28;;
25932;SDS011;13731;51.166;4.474;2023-12-07T06:47:40;68.85;;;61.88;;
25932;SDS011;13731;51.166;4.474;2023-12-07T06:50:07;76.57;;;69.50;;
25932;SDS011;13731;51.166;4.474;2023-12-07T06:52:35;72.68;;;65.70;;
25932;SDS011;13731;51.166;4.474;2023-12-07T06:55:04;71.28;;;65.45;;
25932;SDS011;13731;51.166;4.474;2023-12-07T06:57:31;75.93;;;69.13;;
25932;SDS011;13731;51.166;4.474;2023-12-07T06:59:58;78.90;;;72.15;;
25932;SDS011;13731;51.166;4.474;2023-12-07T07:02:24;78.47;;;71.68;;
25932;SDS011;13731;51.166;4.474;2023-12-07T07:04:51;76.03;;;69.68;;
25932;SDS011;13731;51.166;4.474;2023-12-07T07:07:17;77.72;;;70.95;;
25932;SDS011;13731;51.166;4.474;2023-12-07T07:09:43;59.75;;;53.90;;
25932;SDS011;13731;51.166;4.474;2023-12-07T07:12:09;62.53;;;56.65;;
25932;SDS011;13731;51.166;4.474;2023-12-07T07:14:35;66.72;;;60.58;;
25932;SDS011;13731;51.166;4.474;2023-12-07T07:17:01;66.80;;;60.83;;
25932;SDS011;13731;51.166;4.474;2023-12-07T07:19:30;67.53;;;61.75;;
25932;SDS011;13731;51.166;4.474;2023-12-07T07:21:56;65.35;;;59.40;;
25932;SDS011;13731;51.166;4.474;2023-12-07T07:24:23;63.95;;;58.25;;
25932;SDS011;13731;51.166;4.474;2023-12-07T07:26:49;72.13;;;66.28;;
25932;SDS011;13731;51.166;4.474;2023-12-07T07:29:14;54.67;;;49.08;;
25932;SDS011;13731;51.166;4.474;2023-12-07T07:31:40;50.42;;;45.50;;
25932;SDS011;13731;51.166;4.474;2023-12-07T07:34:06;46.33;;;41.40;;
25932;SDS011;13731;51.166;4.474;2023-12-07T07:36:33;46.10;;;41.58;;
25932;SDS011;13731;51.166;4.474;2023-12-07T07:38:59;46.17;;;41.72;;
25932;SDS011;13731;51.166;4.474;2023-12-07T07:41:25;44.65;;;39.95;;
25932;SDS011;13731;51.166;4.474;2023-12-07T07:43:51;44.38;;;37.80;;
25932;SDS011;13731;51.166;4.474;2023-12-07T07:46:17;44.28;;;34.70;;
25932;SDS011;13731;51.166;4.474;2023-12-07T07:48:43;44.83;;;40.58;;
25932;SDS011;13731;51.166;4.474;2023-12-07T07:51:09;40.28;;;36.05;;
25932;SDS011;13731;51.166;4.474;2023-12-07T07:53:35;46.75;;;40.20;;
25932;SDS011;13731;51.166;4.474;2023-12-07T07:56:01;42.38;;;36.30;;
25932;SDS011;13731;51.166;4.474;2023-12-07T07:58:27;50.05;;;44.85;;
25932;SDS011;13731;51.166;4.474;2023-12-07T08:00:54;46.58;;;39.33;;
25932;SDS011;13731;51.166;4.474;2023-12-07T08:03:20;48.45;;;43.40;;
25932;SDS011;13731;51.166;4.474;2023-12-07T08:05:46;52.08;;;46.67;;
25932;SDS011;13731;51.166;4.474;2023-12-07T08:08:12;47.00;;;42.42;;
25932;SDS011;13731;51.166;4.474;2023-12-07T08:10:38;53.55;;;47.97;;
25932;SDS011;13731;51.166;4.474;2023-12-07T08:13:04;50.75;;;45.50;;
25932;SDS011;13731;51.166;4.474;2023-12-07T08:15:33;66.15;;;60.60;;
25932;SDS011;13731;51.166;4.474;2023-12-07T08:17:59;61.95;;;56.25;;
25932;SDS011;13731;51.166;4.474;2023-12-07T08:20:25;59.65;;;53.67;;
25932;SDS011;13731;51.166;4.474;2023-12-07T08:22:51;61.42;;;55.38;;
25932;SDS011;13731;51.166;4.474;2023-12-07T08:25:17;63.67;;;58.28;;
25932;SDS011;13731;51.166;4.474;2023-12-07T08:27:43;75.82;;;69.30;;
25932;SDS011;13731;51.166;4.474;2023-12-07T08:30:11;66.65;;;61.13;;
25932;SDS011;13731;51.166;4.474;2023-12-07T08:32:38;70.65;;;65.20;;
25932;SDS011;13731;51.166;4.474;2023-12-07T08:35:05;67.15;;;61.42;;
25932;SDS011;13731;51.166;4.474;2023-12-07T08:37:32;77.03;;;70.97;;
25932;SDS011;13731;51.166;4.474;2023-12-07T08:39:58;69.90;;;64.18;;
25932;SDS011;13731;51.166;4.474;2023-12-07T08:42:24;76.72;;;70.68;;
25932;SDS011;13731;51.166;4.474;2023-12-07T08:44:53;62.58;;;57.33;;
25932;SDS011;13731;51.166;4.474;2023-12-07T08:47:19;64.25;;;59.15;;
25932;SDS011;13731;51.166;4.474;2023-12-07T08:49:45;70.60;;;65.07;;
25932;SDS011;13731;51.166;4.474;2023-12-07T08:52:11;61.85;;;56.53;;
25932;SDS011;13731;51.166;4.474;2023-12-07T08:54:37;74.25;;;68.20;;
25932;SDS011;13731;51.166;4.474;2023-12-07T08:57:03;82.05;;;75.57;;
25932;SDS011;13731;51.166;4.474;2023-12-07T08:59:29;56.50;;;51.50;;
25932;SDS011;13731;51.166;4.474;2023-12-07T09:01:58;52.70;;;47.28;;
25932;SDS011;13731;51.166;4.474;2023-12-07T09:04:24;53.40;;;48.55;;
25932;SDS011;13731;51.166;4.474;2023-12-07T09:06:50;58.15;;;53.10;;
25932;SDS011;13731;51.166;4.474;2023-12-07T09:09:16;49.95;;;45.55;;
25932;SDS011;13731;51.166;4.474;2023-12-07T09:11:42;57.13;;;52.13;;
25932;SDS011;13731;51.166;4.474;2023-12-07T09:14:08;53.97;;;49.50;;
25932;SDS011;13731;51.166;4.474;2023-12-07T09:16:42;48.28;;;43.65;;
25932;SDS011;13731;51.166;4.474;2023-12-07T09:19:11;47.88;;;43.90;;
25932;SDS011;13731;51.166;4.474;2023-12-07T09:21:39;45.97;;;41.83;;
25932;SDS011;13731;51.166;4.474;2023-12-07T09:24:06;40.25;;;36.20;;
25932;SDS011;13731;51.166;4.474;2023-12-07T09:26:32;45.90;;;41.88;;
25932;SDS011;13731;51.166;4.474;2023-12-07T09:28:59;36.13;;;32.28;;
25932;SDS011;13731;51.166;4.474;2023-12-07T09:31:27;34.92;;;31.52;;
25932;SDS011;13731;51.166;4.474;2023-12-07T09:33:53;37.92;;;34.03;;
25932;SDS011;13731;51.166;4.474;2023-12-07T09:36:19;41.88;;;35.28;;
25932;SDS011;13731;51.166;4.474;2023-12-07T09:38:49;39.28;;;35.28;;
25932;SDS011;13731;51.166;4.474;2023-12-07T09:41:15;40.47;;;36.67;;
25932;SDS011;13731;51.166;4.474;2023-12-07T09:43:41;38.92;;;35.20;;
25932;SDS011;13731;51.166;4.474;2023-12-07T09:46:07;39.25;;;35.70;;
25932;SDS011;13731;51.166;4.474;2023-12-07T09:48:34;38.13;;;34.50;;
25932;SDS011;13731;51.166;4.474;2023-12-07T09:51:02;38.25;;;33.95;;
25932;SDS011;13731;51.166;4.474;2023-12-07T09:53:30;46.75;;;42.33;;
25932;SDS011;13731;51.166;4.474;2023-12-07T09:56:00;35.25;;;31.85;;
25932;SDS011;13731;51.166;4.474;2023-12-07T09:58:26;35.13;;;31.75;;
25932;SDS011;13731;51.166;4.474;2023-12-07T10:00:52;36.85;;;33.15;;
25932;SDS011;13731;51.166;4.474;2023-12-07T10:03:21;35.88;;;32.25;;
25932;SDS011;13731;51.166;4.474;2023-12-07T10:05:57;36.58;;;32.85;;
25932;SDS011;13731;51.166;4.474;2023-12-07T10:08:25;35.97;;;32.67;;
25932;SDS011;13731;51.166;4.474;2023-12-07T10:11:08;34.40;;;31.48;;
25932;SDS011;13731;51.166;4.474;2023-12-07T10:13:36;37.50;;;33.65;;
25932;SDS011;13731;51.166;4.474;2023-12-07T10:16:09;37.22;;;33.63;;
25932;SDS011;13731;51.166;4.474;2023-12-07T10:18:36;35.25;;;32.15;;
25932;SDS011;13731;51.166;4.474;2023-12-07T10:21:04;36.45;;;32.80;;
25932;SDS011;13731;51.166;4.474;2023-12-07T10:23:31;39.95;;;36.28;;
25932;SDS011;13731;51.166;4.474;2023-12-07T10:25:57;40.67;;;36.70;;
25932;SDS011;13731;51.166;4.474;2023-12-07T10:28:25;41.15;;;37.67;;
25932;SDS011;13731;51.166;4.474;2023-12-07T10:30:51;40.05;;;36.33;;
25932;SDS011;13731;51.166;4.474;2023-12-07T10:33:19;36.28;;;33.38;;
25932;SDS011;13731;51.166;4.474;2023-12-07T10:35:46;35.33;;;32.08;;
25932;SDS011;13731;51.166;4.474;2023-12-07T10:38:15;35.97;;;32.45;;
25932;SDS011;13731;51.166;4.474;2023-12-07T10:40:43;33.70;;;30.77;;
25932;SDS011;13731;51.166;4.474;2023-12-07T10:43:09;35.42;;;32.25;;
25932;SDS011;13731;51.166;4.474;2023-12-07T10:45:35;34.30;;;31.40;;
25932;SDS011;13731;51.166;4.474;2023-12-07T10:48:08;52.10;;;48.20;;
25932;SDS011;13731;51.166;4.474;2023-12-07T10:50:35;35.00;;;32.28;;
25932;SDS011;13731;51.166;4.474;2023-12-07T10:53:19;33.88;;;30.80;;
25932;SDS011;13731;51.166;4.474;2023-12-07T10:55:52;36.08;;;32.83;;
25932;SDS011;13731;51.166;4.474;2023-12-07T10:58:21;33.90;;;30.90;;
25932;SDS011;13731;51.166;4.474;2023-12-07T11:00:51;33.85;;;31.15;;
25932;SDS011;13731;51.166;4.474;2023-12-07T11:03:18;32.33;;;29.58;;
25932;SDS011;13731;51.166;4.474;2023-12-07T11:05:46;33.28;;;30.60;;
25932;SDS011;13731;51.166;4.474;2023-12-07T11:08:16;31.38;;;28.88;;
25932;SDS011;13731;51.166;4.474;2023-12-07T11:11:26;29.58;;;26.85;;
25932;SDS011;13731;51.166;4.474;2023-12-07T11:14:14;31.90;;;29.20;;
25932;SDS011;13731;51.166;4.474;2023-12-07T11:19:53;32.40;;;29.65;;
25932;SDS011;13731;51.166;4.474;2023-12-07T11:24:24;30.33;;;27.55;;
25932;SDS011;13731;51.166;4.474;2023-12-07T11:26:53;30.88;;;28.13;;
25932;SDS011;13731;51.166;4.474;2023-12-07T11:29:21;32.42;;;29.13;;
25932;SDS011;13731;51.166;4.474;2023-12-07T11:37:27;30.27;;;27.52;;
25932;SDS011;13731;51.166;4.474;2023-12-07T11:40:37;35.33;;;32.47;;
25932;SDS011;13731;51.166;4.474;2023-12-07T11:43:05;36.65;;;33.60;;
25932;SDS011;13731;51.166;4.474;2023-12-07T11:45:38;34.15;;;31.60;;
25932;SDS011;13731;51.166;4.474;2023-12-07T11:48:12;52.70;;;48.90;;
25932;SDS011;13731;51.166;4.474;2023-12-07T11:50:54;34.35;;;31.65;;
25932;SDS011;13731;51.166;4.474;2023-12-07T11:53:33;33.85;;;31.48;;
25932;SDS011;13731;51.166;4.474;2023-12-07T11:56:02;72.85;;;68.35;;
25932;SDS011;13731;51.166;4.474;2023-12-07T11:58:33;41.25;;;38.28;;
25932;SDS011;13731;51.166;4.474;2023-12-07T12:01:00;39.17;;;36.58;;
25932;SDS011;13731;51.166;4.474;2023-12-07T12:03:27;40.05;;;37.17;;
25932;SDS011;13731;51.166;4.474;2023-12-07T12:05:54;45.65;;;42.35;;
25932;SDS011;13731;51.166;4.474;2023-12-07T12:08:21;38.22;;;35.42;;
25932;SDS011;13731;51.166;4.474;2023-12-07T12:10:48;39.92;;;37.20;;
25932;SDS011;13731;51.166;4.474;2023-12-07T12:13:17;41.05;;;38.40;;
25932;SDS011;13731;51.166;4.474;2023-12-07T12:15:44;39.05;;;36.17;;
25932;SDS011;13731;51.166;4.474;2023-12-07T12:18:13;38.28;;;35.70;;
25932;SDS011;13731;51.166;4.474;2023-12-07T12:20:41;41.60;;;38.85;;
25932;SDS011;13731;51.166;4.474;2023-12-07T12:23:09;34.30;;;31.48;;
25932;SDS011;13731;51.166;4.474;2023-12-07T12:25:35;36.47;;;33.90;;
25932;SDS011;13731;51.166;4.474;2023-12-07T12:28:02;35.75;;;33.20;;
25932;SDS011;13731;51.166;4.474;2023-12-07T12:30:30;37.83;;;35.10;;
25932;SDS011;13731;51.166;4.474;2023-12-07T12:32:56;35.85;;;33.40;;
25932;SDS011;13731;51.166;4.474;2023-12-07T12:35:22;40.75;;;38.08;;
25932;SDS011;13731;51.166;4.474;2023-12-07T12:37:50;53.03;;;49.63;;
25932;SDS011;13731;51.166;4.474;2023-12-07T12:40:19;40.30;;;37.50;;
25932;SDS011;13731;51.166;4.474;2023-12-07T12:42:46;40.08;;;37.38;;
25932;SDS011;13731;51.166;4.474;2023-12-07T12:45:14;47.90;;;45.08;;
25932;SDS011;13731;51.166;4.474;2023-12-07T12:47:41;43.97;;;40.78;;
25932;SDS011;13731;51.166;4.474;2023-12-07T12:50:11;41.65;;;38.40;;
25932;SDS011;13731;51.166;4.474;2023-12-07T12:53:00;41.78;;;38.58;;
25932;SDS011;13731;51.166;4.474;2023-12-07T12:55:46;42.67;;;39.55;;
25932;SDS011;13731;51.166;4.474;2023-12-07T12:58:13;38.55;;;35.83;;
25932;SDS011;13731;51.166;4.474;2023-12-07T13:00:42;49.38;;;46.28;;
25932;SDS011;13731;51.166;4.474;2023-12-07T13:03:09;41.17;;;37.42;;
25932;SDS011;13731;51.166;4.474;2023-12-07T13:05:38;42.30;;;38.40;;
25932;SDS011;13731;51.166;4.474;2023-12-07T13:08:04;50.03;;;46.67;;
25932;SDS011;13731;51.166;4.474;2023-12-07T13:10:30;50.90;;;47.83;;
25932;SDS011;13731;51.166;4.474;2023-12-07T13:12:56;41.47;;;38.47;;
25932;SDS011;13731;51.166;4.474;2023-12-07T13:15:22;55.35;;;51.92;;
25932;SDS011;13731;51.166;4.474;2023-12-07T13:17:50;40.45;;;37.55;;
25932;SDS011;13731;51.166;4.474;2023-12-07T13:20:16;59.30;;;55.50;;
25932;SDS011;13731;51.166;4.474;2023-12-07T13:22:42;37.55;;;35.00;;
25932;SDS011;13731;51.166;4.474;2023-12-07T13:25:11;41.05;;;37.88;;
25932;SDS011;13731;51.166;4.474;2023-12-07T13:27:41;40.20;;;37.40;;
25932;SDS011;13731;51.166;4.474;2023-12-07T13:30:08;40.63;;;37.47;;
25932;SDS011;13731;51.166;4.474;2023-12-07T13:32:34;38.80;;;36.17;;
25932;SDS011;13731;51.166;4.474;2023-12-07T13:35:02;38.40;;;35.63;;
25932;SDS011;13731;51.166;4.474;2023-12-07T13:37:33;39.13;;;36.20;;
25932;SDS011;13731;51.166;4.474;2023-12-07T13:39:59;40.20;;;37.13;;
25932;SDS011;13731;51.166;4.474;2023-12-07T13:42:28;39.50;;;36.40;;
25932;SDS011;13731;51.166;4.474;2023-12-07T13:44:55;37.88;;;35.15;;
25932;SDS011;13731;51.166;4.474;2023-12-07T13:47:23;39.90;;;37.10;;
25932;SDS011;13731;51.166;4.474;2023-12-07T13:49:55;42.28;;;39.35;;
25932;SDS011;13731;51.166;4.474;2023-12-07T13:52:22;38.38;;;35.42;;
25932;SDS011;13731;51.166;4.474;2023-12-07T13:54:48;39.92;;;36.75;;
25932;SDS011;13731;51.166;4.474;2023-12-07T13:57:14;42.40;;;38.75;;
25932;SDS011;13731;51.166;4.474;2023-12-07T13:59:40;56.67;;;53.15;;
25932;SDS011;13731;51.166;4.474;2023-12-07T14:02:07;37.20;;;34.38;;
25932;SDS011;13731;51.166;4.474;2023-12-07T14:04:33;37.72;;;35.00;;
25932;SDS011;13731;51.166;4.474;2023-12-07T14:07:12;40.75;;;37.80;;
25932;SDS011;13731;51.166;4.474;2023-12-07T14:09:40;37.65;;;34.83;;
25932;SDS011;13731;51.166;4.474;2023-12-07T14:12:08;40.93;;;37.67;;
25932;SDS011;13731;51.166;4.474;2023-12-07T14:14:43;40.08;;;37.22;;
25932;SDS011;13731;51.166;4.474;2023-12-07T14:17:12;38.92;;;35.65;;
25932;SDS011;13731;51.166;4.474;2023-12-07T14:19:38;44.53;;;41.40;;
25932;SDS011;13731;51.166;4.474;2023-12-07T14:22:05;42.00;;;38.95;;
25932;SDS011;13731;51.166;4.474;2023-12-07T14:24:34;46.33;;;43.08;;
25932;SDS011;13731;51.166;4.474;2023-12-07T14:27:05;44.17;;;40.97;;
25932;SDS011;13731;51.166;4.474;2023-12-07T14:29:32;46.63;;;43.42;;